Hauptseite
METAR-TAF:

METAR-TAF

Flughäfen :

Seyresse

Dax, Frankreich

Breite: 43-41N, Länge: 001-04W, Höhe: 32 m

Beobachtung

Neuester Wetterbericht von vor 24 Minuten, um 18:30 UTC
Wind 6 kt aus Ost
Temperatur 35°C
Luftfeuchtigkeit 23%
Luftdruck 1012 hPa
Sichtweite 10 km oder mehr

METAR: LFBY 061830Z AUTO 09006KT 9999 // ////// 35/11 Q1012

Zeit: 20:54 (18:54 UTC)


TAF: fehlend

Wetterbeobachtungen und Prognosen von mehr als 4000 Flughäfen (METAR und TAF Bericht).

Die verfügbaren Stationen werden durch gelbe und rote Markierungen auf der Karte dargestellt.

Führen Sie die Maus auf sie, um den Namen der Station zu sehen.

Darauf klicken, um die Beobachtung von Wetterbeobachtungen und Prognosen zu sehen.

Um die Karte zu ändern : klicken Sie auf den grünen Tasten mit einem schwarzen Kreuz Zum Vergrößern, auf den grünen Button mit einem Gedankenstrich zu verkleinern, oder auf die grünen Pfeile für benachbarte Karten.


METAR-TAF: